SBCZ/CZS METAR and TAF weather

Enter ICAO airport designator
Station Type Date Time Source
SBCZ METAR 2021/01/17 18:00 UTC NOAA

SBCZ 171800Z 36007KT 9999 BKN030 33/25 Q1008


Station Type Date Time Source
SBCZ Decoded METAR 2021/01/17 18:00 UTC NOAA

Cruzeiro Do Sul, Brazil (SBCZ) 07-38S 072-40W
Jan 17, 2021 - 01:00 PM EST / 2021.01.17 1800 UTC
Wind: from the N (360 degrees) at 8 MPH (7 KT):0
Visibility: greater than 7 mile(s):0
Sky conditions: mostly cloudy
Temperature: 91 F (33 C)
Heat index: 103.5 F (39.7 C):1
Dew Point: 77 F (25 C)
Relative Humidity: 62%
Pressure (altimeter): 29.77 in. Hg (1008 hPa)
ob: SBCZ 171800Z 36007KT 9999 BKN030 33/25 Q1008
cycle: 18

Station Type Date Time Source
SBCZ TAF 2019/09/19 12:09 UTC NOAA

TAF SBCZ 190900Z 1912/2012 27005KT 9999 FEW020 FEW025TCU TX34/1919Z TN23/2006Z PROB30
TEMPO 1912/1916 4000 TSRA BKN020 FEW025CB
BECMG 1916/1918 27005KT
BECMG 1923/2001 00000KT CAVOK PROB30 2006/2012 4000 BR
RMK PGZ

Example: see airport list